Terminal Aerodrome Forecast
Issued by NWS Twin Cities, MN

Home | Current Version | Previous Version | Graphics & Text | Print | Product List | Glossary On
Versions: 1 2 3 4 5 6 7 8 9 10 11 12 13 14 15 16 17 18 19 20 21 22 23 24 25 26 27
000
FTUS43 KMPX 240539
TAFMSP
TAF
KMSP 240539Z 2406/2512 12006KT P6SM BKN150
     FM241200 12011KT P6SM OVC080
     FM241800 12014G21KT 6SM -SHRA OVC050
     FM250000 11013KT 5SM -DZ OVC030
     FM250600 11012KT 6SM BR OVC014=

USA.gov is the U.S. government's official web portal to all federal, state and local government web resources and services.